Home > Products > Valid Products > MTR

000
SAUS45 KPIH 251152
MTRSNT
METAR KSNT 251151Z AUTO 00000KT 02/M01 A3001 RMK AO1 SLP110
T00171011 10050 20017 51007





000
SAUS45 KPIH 250852
MTRSNT
METAR KSNT 250851Z AUTO 18003KT 03/00 A2999 RMK AO1 SLP095 T00330000
51004





000
SAUS45 KPIH 250652
MTRSNT
METAR KSNT 250651Z AUTO 00000KT 04/00 A2998 RMK AO1 SLP092 T00390000
401441044





000
SAUS45 KPIH 250552
MTRSNT
METAR KSNT 250551Z AUTO 00000KT 04/00 A2997 RMK AO1 SLP090 T00440000
10133 20044 51013





000
SAUS45 KPIH 250052
MTRSNT
METAR KSNT 250051Z AUTO 35012G18KT 11/M01 A2991 RMK AO1 SLP089
T01061006





000
SAUS45 KPIH 242252
MTRSNT
METAR KSNT 242251Z AUTO 34009KT 13/M03 A2989 RMK AO1 SLP077
T01281028





000
SAUS45 KPIH 241852
MTRSNT
METAR KSNT 241851Z AUTO 35006KT 12/M03 A2990 RMK AO1 SLP075
T01221033





000
SAUS45 KPIH 241652
MTRSNT
METAR KSNT 241651Z AUTO 32004KT 09/M01 A2992 RMK AO1 SLP085
T00941006





000
SAUS45 KPIH 241452
MTRSNT
METAR KSNT 241451Z AUTO 00000KT 02/M02 A2995 RMK AO1 SLP101
T00171017 51004





000
SAUS45 KPIH 241252
MTRSNT
METAR KSNT 241251Z AUTO 00000KT M03/M05 A2995 RMK AO1 SLP103
T10281050





000
SAUS45 KPIH 241152
MTRSNT
METAR KSNT 241151Z AUTO 00000KT M04/M06 A2994 RMK AO1 SLP102
T10391061 10006 21044 50001





000
SAUS45 KPIH 240652
MTRSNT
METAR KSNT 240651Z AUTO 15003KT 00/M03 A2993 RMK AO1 SLP095
T00001033 401171011





000
SAUS45 KPIH 240552
MTRSNT
METAR KSNT 240551Z AUTO 17003KT 00/M03 A2993 RMK AO1 SLP095
T00001033 10117 20000 51009





000
SAUS45 KPIH 240452
MTRSNT
METAR KSNT 240451Z AUTO 19003KT 02/M03 A2993 RMK AO1 SLP091
T00171028





000
SAUS45 KPIH 240252
MTRSNT
METAR KSNT 240251Z AUTO 00000KT 07/M02 A2990 RMK AO1 SLP075
T00671022 55003





000
SAUS45 KPIH 240052
MTRSNT
METAR KSNT 240051Z AUTO 35007G15KT 11/M03 A2990 RMK AO1 SLP075
T01061028





000
SAUS45 KPIH 232352
MTRSNT
METAR KSNT 232351Z AUTO 34005KT 11/M02 A2991 RMK AO1 SLP081
T01061022 10111 20078 58002





000
SAUS45 KPIH 231952
MTRSNT
METAR KSNT 231951Z AUTO VRB04KT 09/M03 A2993 RMK AO1 SLP094
T00891033





000
SAUS45 KPIH 231752
MTRSNT
METAR KSNT 231751Z AUTO 29007KT 250V310 08/M05 A2993 RMK AO1 SLP090
T00831050 10083 20006 55001





000
SAUS45 KPIH 231452
MTRSNT
METAR KSNT 231451Z AUTO 09003KT 05/M01 A2994 RMK AO1 SLP093
T00501011 50002





000
SAUS45 KPIH 231252
MTRSNT
METAR KSNT 231251Z AUTO 00000KT 01/M02 A2993 RMK AO1 SLP096
T00111017





000
SAUS45 KPIH 231152
MTRSNT
METAR KSNT 231151Z AUTO 16005KT 01/M02 A2993 RMK AO1 SLP099 70003
T00061022 10028 21011 58004





000
SAUS45 KPIH 231052
MTRSNT
METAR KSNT 231051Z AUTO 00000KT 01/M02 A2994 RMK AO1 SLP104
T00061022





000
SAUS45 KPIH 230852
MTRSNT
METAR KSNT 230851Z AUTO 00000KT 01/M02 A2994 RMK AO1 SLP101
T00061022 58006





000
SAUS45 KPIH 230652
MTRSNT
METAR KSNT 230651Z AUTO 17003KT 00/M03 A2996 RMK AO1 SLP112
T00001028 400890000





000
SAUS45 KPIH 230552
MTRSNT
METAR KSNT 230551Z AUTO 00000KT 03/M02 A2997 RMK AO1 SLP113
T00281017 10072 20017 51005





000
SAUS45 KPIH 230252
MTRSNT
METAR KSNT 230251Z AUTO 00000KT 05/M01 A2995 RMK AO1 SLP101
T00501011 53001





000
SAUS45 KPIH 230052
MTRSNT
METAR KSNT 230051Z AUTO VRB05KT 06/M02 A2994 RMK AO1 SLP099
T00611022





000
SAUS45 KPIH 222352
MTRSNT
METAR KSNT 222351Z AUTO VRB04KT 06/M03 A2994 RMK AO1 SLP099 60003
T00611028 10089 20028 58003





000
SAUS45 KPIH 221852
MTRSNT
METAR KSNT 221851Z AUTO 33007KT 07/M02 A2995 RMK AO1 SLP104 P0001
T00671017





000
SAUS45 KPIH 221752
MTRSNT
METAR KSNT 221751Z AUTO 34008KT 04/M01 A2996 RMK AO1 SLP113
T00391006 10061 20017 52008





    US Dept of Commerce
    National Oceanic and Atmospheric Administration
    National Weather Service
    1325 East West Highway
    Silver Spring, MD 20910
    Page Author: NWS Internet Services Team
Disclaimer
Information Quality
Credits
Glossary
Privacy Policy
Freedom of Information Act (FOIA)
About Us
Career Opportunities